createdAt,value
2018-04-15T00:01:23.475Z,4.80
2018-04-15T00:03:51.806Z,4.70
2018-04-15T00:06:20.131Z,4.40
2018-04-15T00:08:49.185Z,4.50
2018-04-15T00:11:17.430Z,3.95
2018-04-15T00:13:45.720Z,4.83
2018-04-15T00:16:14.218Z,5.93
2018-04-15T00:18:42.516Z,5.63
2018-04-15T00:21:10.818Z,5.30
2018-04-15T00:23:39.106Z,4.53
2018-04-15T00:26:07.397Z,4.43
2018-04-15T00:28:35.727Z,4.40
2018-04-15T00:31:04.007Z,4.03
2018-04-15T00:33:32.349Z,3.63
2018-04-15T00:36:00.678Z,4.50
2018-04-15T00:38:29.024Z,3.70
2018-04-15T00:40:57.291Z,3.97
2018-04-15T00:43:25.595Z,4.20
2018-04-15T00:45:54.042Z,4.70
2018-04-15T00:48:22.277Z,4.13
2018-04-15T00:50:50.594Z,4.20
2018-04-15T00:53:18.869Z,4.50
2018-04-15T00:55:47.776Z,4.80
2018-04-15T00:58:16.141Z,4.50
2018-04-15T01:00:44.435Z,4.80
2018-04-15T01:03:12.751Z,5.30
2018-04-15T01:05:41.042Z,4.80
2018-04-15T01:08:09.323Z,5.70
2018-04-15T01:10:37.653Z,6.00
2018-04-15T01:13:05.959Z,6.10
2018-04-15T01:15:34.252Z,5.90
2018-04-15T01:18:03.186Z,5.47
2018-04-15T01:20:31.464Z,5.67
2018-04-15T01:22:59.782Z,5.93
2018-04-15T01:25:28.030Z,4.33
2018-04-15T01:27:56.361Z,3.83
2018-04-15T01:30:24.639Z,4.33
2018-04-15T01:32:52.945Z,3.73
2018-04-15T01:35:21.230Z,4.10
2018-04-15T01:37:49.513Z,3.57
2018-04-15T01:40:17.813Z,3.37
2018-04-15T01:42:46.126Z,3.65
2018-04-15T01:45:14.710Z,3.33
2018-04-15T01:47:43.018Z,3.47
2018-04-15T01:50:11.326Z,3.87
2018-04-15T01:52:39.614Z,4.20
2018-04-15T01:55:07.870Z,5.53
2018-04-15T01:57:36.175Z,4.60
2018-04-15T02:00:04.566Z,6.80
2018-04-15T02:02:32.908Z,5.60
2018-04-15T02:05:01.198Z,6.22
2018-04-15T02:07:29.503Z,6.03
2018-04-15T02:09:57.779Z,5.40
2018-04-15T02:12:26.134Z,5.30
2018-04-15T02:14:54.389Z,5.57
2018-04-15T02:17:22.714Z,5.20
2018-04-15T02:19:51.044Z,5.23
2018-04-15T02:22:19.318Z,5.28
2018-04-15T02:24:47.623Z,5.23
2018-04-15T02:27:15.882Z,4.37
2018-04-15T02:29:44.184Z,5.13
2018-04-15T02:32:12.484Z,5.03
2018-04-15T02:34:40.780Z,4.77
2018-04-15T02:37:09.059Z,4.83
2018-04-15T02:39:37.415Z,4.60
2018-04-15T02:42:05.741Z,5.33
2018-04-15T02:44:34.078Z,5.20
2018-04-15T02:47:02.389Z,5.20
2018-04-15T02:49:30.670Z,5.70
2018-04-15T02:51:58.947Z,4.40
2018-04-15T02:54:27.237Z,4.30
2018-04-15T02:56:55.502Z,4.10
2018-04-15T02:59:23.810Z,3.70
2018-04-15T03:01:52.127Z,3.80
2018-04-15T03:04:20.413Z,3.55
2018-04-15T03:06:48.707Z,3.40
2018-04-15T03:09:16.990Z,3.70
2018-04-15T03:11:45.294Z,3.50
2018-04-15T03:14:13.589Z,3.10
2018-04-15T03:16:41.877Z,4.03
2018-04-15T03:19:10.158Z,5.25
2018-04-15T03:21:38.490Z,2.72
2018-04-15T03:24:06.803Z,3.80
2018-04-15T03:26:35.087Z,3.60
2018-04-15T03:29:03.690Z,3.67
2018-04-15T03:31:32.190Z,3.70
2018-04-15T03:34:00.463Z,3.17
2018-04-15T03:36:28.763Z,3.70
2018-04-15T03:38:57.027Z,3.78
2018-04-15T03:41:25.328Z,3.47
2018-04-15T03:43:53.660Z,3.47
2018-04-15T03:46:21.962Z,3.40
2018-04-15T03:48:50.275Z,3.40
2018-04-15T03:51:18.558Z,3.77
2018-04-15T03:53:46.898Z,3.60
2018-04-15T03:56:15.173Z,3.25
2018-04-15T03:58:43.476Z,3.60
2018-04-15T04:01:11.783Z,3.00
2018-04-15T04:03:40.111Z,3.07
2018-04-15T04:06:08.449Z,3.33
2018-04-15T04:08:36.755Z,2.83
2018-04-15T04:11:05.264Z,2.80
2018-04-15T04:13:33.570Z,3.12
2018-04-15T04:16:01.840Z,2.83
2018-04-15T04:18:41.949Z,3.40
2018-04-15T04:21:22.062Z,2.97
2018-04-15T04:24:03.097Z,3.10
2018-04-15T04:26:31.619Z,3.60
2018-04-15T04:28:59.838Z,3.07
2018-04-15T04:31:28.150Z,3.53
2018-04-15T04:33:56.884Z,3.40
2018-04-15T04:36:25.166Z,3.75
2018-04-15T04:38:53.496Z,4.20
2018-04-15T04:41:21.758Z,4.53
2018-04-15T04:43:50.069Z,3.83
2018-04-15T04:46:18.384Z,4.07
2018-04-15T04:48:46.673Z,4.00
2018-04-15T04:51:14.929Z,4.40
2018-04-15T04:53:43.215Z,4.20
2018-04-15T04:56:11.526Z,3.83
2018-04-15T04:58:39.794Z,4.23
2018-04-15T05:01:08.103Z,4.00
2018-04-15T05:03:36.423Z,4.10
2018-04-15T05:06:04.764Z,4.70
2018-04-15T05:08:33.043Z,4.37
2018-04-15T05:11:01.350Z,4.28
2018-04-15T05:13:29.647Z,4.00
2018-04-15T05:15:58.549Z,4.43
2018-04-15T05:18:26.859Z,4.30
2018-04-15T05:20:55.126Z,3.90
2018-04-15T05:23:23.458Z,4.27
2018-04-15T05:25:51.721Z,4.30
2018-04-15T05:28:20.021Z,4.20
2018-04-15T05:30:48.300Z,3.90
2018-04-15T05:33:16.594Z,4.55
2018-04-15T05:35:44.855Z,4.47
2018-04-15T05:38:13.174Z,3.93
2018-04-15T05:40:41.466Z,4.10
2018-04-15T05:43:09.770Z,3.80
2018-04-15T05:45:38.048Z,4.27
2018-04-15T05:48:06.343Z,4.40
2018-04-15T05:50:34.606Z,3.97
2018-04-15T05:53:02.905Z,3.80
2018-04-15T05:55:31.365Z,3.63
2018-04-15T05:57:59.674Z,3.80
2018-04-15T06:00:27.950Z,3.70
2018-04-15T06:02:56.266Z,3.90
2018-04-15T06:05:24.573Z,3.70
2018-04-15T06:07:52.864Z,4.70
2018-04-15T06:10:21.183Z,4.10
2018-04-15T06:12:49.506Z,4.10
2018-04-15T06:15:17.801Z,4.10
2018-04-15T06:17:46.054Z,4.47
2018-04-15T06:20:14.357Z,4.10
2018-04-15T06:22:42.619Z,3.97
2018-04-15T06:25:10.913Z,3.60
2018-04-15T06:27:39.166Z,4.00
2018-04-15T06:30:07.460Z,3.80
2018-04-15T06:32:35.747Z,3.50
2018-04-15T06:35:04.099Z,3.60
2018-04-15T06:37:32.369Z,3.57
2018-04-15T06:40:00.697Z,3.60
2018-04-15T06:42:31.199Z,3.80
2018-04-15T06:44:59.518Z,3.50
2018-04-15T06:47:27.823Z,3.20
2018-04-15T06:49:56.130Z,3.30
2018-04-15T06:52:24.391Z,3.93
2018-04-15T06:54:52.664Z,3.70
2018-04-15T06:57:20.951Z,3.90
2018-04-15T06:59:49.219Z,3.80
2018-04-15T07:02:17.510Z,3.30
2018-04-15T07:04:45.778Z,3.27
2018-04-15T07:07:14.062Z,3.35
2018-04-15T07:09:42.324Z,3.07
2018-04-15T07:12:10.616Z,3.07
2018-04-15T07:14:38.874Z,3.00
2018-04-15T07:17:07.151Z,2.60
2018-04-15T07:19:35.429Z,2.43
2018-04-15T07:22:04.766Z,2.50
2018-04-15T07:24:33.023Z,2.60
2018-04-15T07:27:01.347Z,2.43
2018-04-15T07:29:29.645Z,2.70
2018-04-15T07:31:58.357Z,2.10
2018-04-15T07:34:26.625Z,2.20
2018-04-15T07:36:55.410Z,2.00
2018-04-15T07:39:23.698Z,1.80
2018-04-15T07:41:52.001Z,2.00
2018-04-15T07:44:20.247Z,2.10
2018-04-15T07:46:48.557Z,1.93
2018-04-15T07:49:16.847Z,1.50
2018-04-15T07:51:45.114Z,1.50
2018-04-15T07:54:13.395Z,1.70
2018-04-15T07:56:41.703Z,1.60
2018-04-15T07:59:10.013Z,1.55
2018-04-15T08:01:38.284Z,1.80
2018-04-15T08:04:06.799Z,1.57
2018-04-15T08:06:35.037Z,1.73
2018-04-15T08:09:03.347Z,1.60
2018-04-15T08:11:31.614Z,1.50
2018-04-15T08:13:59.918Z,1.53
2018-04-15T08:16:28.190Z,1.67
2018-04-15T08:18:56.474Z,1.43
2018-04-15T08:21:24.727Z,1.47
2018-04-15T08:23:53.038Z,1.52
2018-04-15T08:26:21.330Z,1.70
2018-04-15T08:28:49.633Z,1.40
2018-04-15T08:31:18.638Z,1.77
2018-04-15T08:33:46.958Z,1.33
2018-04-15T08:36:15.218Z,1.13
2018-04-15T08:38:43.515Z,1.30
2018-04-15T08:41:11.804Z,1.30
2018-04-15T08:43:40.083Z,1.23
2018-04-15T08:46:08.385Z,1.60
2018-04-15T08:48:36.665Z,1.73
2018-04-15T08:51:05.568Z,1.17
2018-04-15T08:53:33.846Z,1.27
2018-04-15T08:56:02.152Z,1.00
2018-04-15T08:58:30.418Z,1.10
2018-04-15T09:00:58.743Z,1.57
2018-04-15T09:03:27.010Z,1.25
2018-04-15T09:05:55.311Z,1.30
2018-04-15T09:08:23.568Z,1.10
2018-04-15T09:10:51.857Z,1.20
2018-04-15T09:13:20.170Z,1.30
2018-04-15T09:15:48.501Z,1.30
2018-04-15T09:18:16.835Z,1.40
2018-04-15T09:20:45.067Z,1.20
2018-04-15T09:23:13.346Z,1.02
2018-04-15T09:25:42.153Z,1.00
2018-04-15T09:28:10.810Z,1.15
2018-04-15T09:30:44.734Z,1.27
2018-04-15T09:33:13.026Z,1.33
2018-04-15T09:35:41.305Z,1.30
2018-04-15T09:38:09.598Z,1.40
2018-04-15T09:40:38.013Z,1.10
2018-04-15T09:43:06.299Z,1.10
2018-04-15T09:45:34.580Z,1.10
2018-04-15T09:48:02.855Z,1.07
2018-04-15T09:50:31.322Z,1.20
2018-04-15T09:52:59.592Z,1.30
2018-04-15T09:55:27.858Z,1.07
2018-04-15T09:57:56.837Z,1.00
2018-04-15T10:00:25.106Z,1.10
2018-04-15T10:02:53.452Z,1.30
2018-04-15T10:05:21.742Z,1.10
2018-04-15T10:07:50.043Z,1.40
2018-04-15T10:10:18.435Z,1.00
2018-04-15T10:12:46.756Z,1.10
2018-04-15T10:15:15.006Z,1.00
2018-04-15T10:17:43.306Z,1.10
2018-04-15T10:20:11.608Z,1.05
2018-04-15T10:22:39.909Z,1.10
2018-04-15T10:25:08.184Z,1.23
2018-04-15T10:27:36.482Z,1.35
2018-04-15T10:30:04.776Z,1.83
2018-04-15T10:32:33.046Z,1.10
2018-04-15T10:35:01.345Z,1.30
2018-04-15T10:37:29.605Z,1.00
2018-04-15T10:39:57.914Z,1.20
2018-04-15T10:42:26.396Z,1.10
2018-04-15T10:44:54.717Z,1.20
2018-04-15T10:47:22.993Z,1.30
2018-04-15T10:49:51.267Z,1.60
2018-04-15T10:52:19.542Z,2.05
2018-04-15T10:54:47.839Z,1.70
2018-04-15T10:57:16.145Z,1.20
2018-04-15T10:59:44.482Z,1.20
2018-04-15T11:02:12.730Z,1.10
2018-04-15T11:04:41.031Z,1.00
2018-04-15T11:07:09.323Z,1.30
2018-04-15T11:09:37.580Z,1.50
2018-04-15T11:12:05.943Z,1.40
2018-04-15T11:14:34.315Z,1.33
2018-04-15T11:17:02.609Z,1.17
2018-04-15T11:19:30.870Z,1.50
2018-04-15T11:21:59.187Z,1.27
2018-04-15T11:24:27.459Z,1.70
2018-04-15T11:26:55.775Z,1.60
2018-04-15T11:29:24.054Z,1.50
2018-04-15T11:31:52.359Z,1.60
2018-04-15T11:34:20.751Z,1.65
2018-04-15T11:36:49.028Z,1.70
2018-04-15T11:39:17.294Z,1.23
2018-04-15T11:41:45.593Z,1.40
2018-04-15T11:44:13.850Z,1.60
2018-04-15T11:46:42.138Z,1.43
2018-04-15T11:49:10.408Z,1.77
2018-04-15T11:51:38.787Z,1.50
2018-04-15T11:54:07.153Z,1.50
2018-04-15T11:56:35.525Z,1.50
2018-04-15T11:59:03.765Z,1.60
2018-04-15T12:01:32.058Z,1.60
2018-04-15T12:04:00.367Z,1.40
2018-04-15T12:06:28.649Z,1.63
2018-04-15T12:08:57.000Z,1.65
2018-04-15T12:11:25.299Z,1.33
2018-04-15T12:13:53.599Z,1.30
2018-04-15T12:16:21.853Z,1.77
2018-04-15T12:18:50.162Z,1.43
2018-04-15T12:21:18.453Z,1.30
2018-04-15T12:23:46.758Z,1.60
2018-04-15T12:26:15.031Z,1.70
2018-04-15T12:28:43.331Z,1.20
2018-04-15T12:31:11.705Z,1.62
2018-04-15T12:33:40.040Z,1.70
2018-04-15T12:36:08.253Z,1.37
2018-04-15T12:38:36.555Z,1.73
2018-04-15T12:41:05.076Z,1.70
2018-04-15T12:43:33.391Z,1.40
2018-04-15T12:46:01.755Z,1.37
2018-04-15T12:48:30.036Z,1.60
2018-04-15T12:50:58.335Z,1.47
2018-04-15T12:53:26.617Z,1.30
2018-04-15T12:55:54.919Z,1.40
2018-04-15T12:58:23.215Z,1.60
2018-04-15T13:00:51.509Z,1.50
2018-04-15T13:03:20.437Z,1.50
2018-04-15T13:05:48.746Z,1.83
2018-04-15T13:08:17.054Z,1.62
2018-04-15T13:10:45.319Z,1.25
2018-04-15T13:13:13.705Z,1.40
2018-04-15T13:15:41.967Z,1.40
2018-04-15T13:18:10.291Z,1.30
2018-04-15T13:20:38.599Z,1.27
2018-04-15T13:23:06.884Z,1.60
2018-04-15T13:25:35.193Z,1.23
2018-04-15T13:28:04.362Z,1.60
2018-04-15T13:30:32.687Z,1.70
2018-04-15T13:33:00.984Z,1.42
2018-04-15T13:35:29.302Z,1.50
2018-04-15T13:37:57.571Z,8.00
2018-04-15T13:40:25.859Z,2.13
2018-04-15T13:42:54.177Z,1.63
2018-04-15T13:45:22.454Z,1.50
2018-04-15T13:47:50.755Z,1.50
2018-04-15T13:50:19.055Z,1.20
2018-04-15T13:52:47.366Z,1.40
2018-04-15T13:55:15.703Z,1.40
2018-04-15T13:57:44.006Z,1.30
2018-04-15T14:00:12.307Z,1.60
2018-04-15T14:02:40.678Z,1.47
2018-04-15T14:05:08.965Z,1.30
2018-04-15T14:07:37.326Z,1.80
2018-04-15T14:10:05.766Z,1.43
2018-04-15T14:12:34.087Z,1.55
2018-04-15T14:15:02.421Z,1.30
2018-04-15T14:17:30.729Z,1.47
2018-04-15T14:19:59.064Z,1.67
2018-04-15T14:22:27.315Z,1.57
2018-04-15T14:24:55.697Z,1.60
2018-04-15T14:27:23.994Z,1.40
2018-04-15T14:29:52.290Z,1.30
2018-04-15T14:32:20.600Z,1.30
2018-04-15T14:34:48.924Z,1.80
2018-04-15T14:37:17.214Z,1.60
2018-04-15T14:39:45.507Z,1.70
2018-04-15T14:42:13.815Z,1.40
2018-04-15T14:44:42.615Z,1.57
2018-04-15T14:47:10.923Z,1.50
2018-04-15T14:49:40.120Z,1.77
2018-04-15T14:52:08.435Z,1.87
2018-04-15T14:54:36.722Z,1.50
2018-04-15T14:57:05.058Z,1.47
2018-04-15T14:59:33.403Z,2.00
2018-04-15T15:02:01.699Z,1.62
2018-04-15T15:04:29.965Z,1.60
2018-04-15T15:06:58.265Z,1.67
2018-04-15T15:09:26.659Z,1.80
2018-04-15T15:11:56.914Z,1.70
2018-04-15T15:14:25.176Z,1.53
2018-04-15T15:16:53.480Z,1.40
2018-04-15T15:19:21.780Z,1.77
2018-04-15T15:21:50.103Z,2.45
2018-04-15T15:24:18.737Z,1.77
2018-04-15T15:26:47.074Z,2.53
2018-04-15T15:29:15.414Z,6.20
2018-04-15T15:31:43.780Z,3.30
2018-04-15T15:34:12.074Z,2.00
2018-04-15T15:36:40.350Z,1.67
2018-04-15T15:39:08.670Z,1.37
2018-04-15T15:41:37.062Z,1.80
2018-04-15T15:44:05.380Z,1.50
2018-04-15T15:46:33.658Z,1.87
2018-04-15T15:49:01.942Z,1.80
2018-04-15T15:51:30.214Z,1.60
2018-04-15T15:53:58.560Z,2.07
2018-04-15T15:56:26.843Z,1.90
2018-04-15T15:58:55.171Z,2.27
2018-04-15T16:01:23.447Z,1.70
2018-04-15T16:03:51.799Z,1.60
2018-04-15T16:06:20.047Z,1.77
2018-04-15T16:08:48.367Z,1.80
2018-04-15T16:11:16.627Z,1.63
2018-04-15T16:13:45.887Z,1.93
2018-04-15T16:16:14.223Z,2.03
2018-04-15T16:18:42.466Z,1.90
2018-04-15T16:21:10.775Z,2.00
2018-04-15T16:23:39.075Z,1.60
2018-04-15T16:26:07.372Z,1.73
2018-04-15T16:28:35.668Z,1.60
2018-04-15T16:31:03.986Z,1.60
2018-04-15T16:33:33.781Z,2.30
2018-04-15T16:36:02.085Z,1.77
2018-04-15T16:38:30.353Z,2.20
2018-04-15T16:40:58.654Z,2.57
2018-04-15T16:43:26.905Z,2.70
2018-04-15T16:45:55.196Z,2.20
2018-04-15T16:48:23.454Z,2.80
2018-04-15T16:50:51.843Z,2.67
2018-04-15T16:53:20.039Z,2.60
2018-04-15T16:55:48.379Z,2.73
2018-04-15T16:58:16.678Z,2.40
2018-04-15T17:00:44.995Z,2.50
2018-04-15T17:03:13.277Z,3.23
2018-04-15T17:05:41.599Z,2.97
2018-04-15T17:08:09.873Z,3.00
2018-04-15T17:10:38.214Z,3.23
2018-04-15T17:13:06.518Z,2.63
2018-04-15T17:15:34.765Z,5.63
2018-04-15T17:18:03.094Z,4.90
2018-04-15T17:20:31.480Z,4.40
2018-04-15T17:22:59.868Z,7.03
2018-04-15T17:25:28.145Z,7.07
2018-04-15T17:27:56.414Z,3.60
2018-04-15T17:30:24.697Z,3.47
2018-04-15T17:32:53.002Z,3.70
2018-04-15T17:35:21.280Z,4.00
2018-04-15T17:37:49.581Z,3.70
2018-04-15T17:40:17.890Z,3.57
2018-04-15T17:42:46.228Z,3.87
2018-04-15T17:45:14.572Z,3.77
2018-04-15T17:47:42.920Z,4.07
2018-04-15T17:50:11.184Z,3.23
2018-04-15T17:52:39.537Z,3.47
2018-04-15T17:55:07.858Z,2.77
2018-04-15T17:57:36.127Z,3.30
2018-04-15T18:00:04.435Z,2.93
2018-04-15T18:02:32.746Z,3.20
2018-04-15T18:05:01.050Z,3.10
2018-04-15T18:07:29.416Z,2.80
2018-04-15T18:09:57.722Z,3.10
2018-04-15T18:12:26.085Z,3.40
2018-04-15T18:14:54.400Z,3.17
2018-04-15T18:17:22.690Z,3.70
2018-04-15T18:19:51.019Z,3.30
2018-04-15T18:22:19.324Z,5.30
2018-04-15T18:24:47.632Z,3.40
2018-04-15T18:27:15.903Z,3.33
2018-04-15T18:29:44.226Z,3.00
2018-04-15T18:32:12.513Z,3.40
2018-04-15T18:34:40.783Z,3.20
2018-04-15T18:37:09.071Z,3.30
2018-04-15T18:39:37.478Z,3.10
2018-04-15T18:42:05.786Z,3.60
2018-04-15T18:44:34.103Z,2.70
2018-04-15T18:47:02.371Z,3.03
2018-04-15T18:49:30.660Z,3.30
2018-04-15T18:51:58.978Z,3.10
2018-04-15T18:54:27.330Z,3.43
2018-04-15T18:56:55.622Z,2.90
2018-04-15T18:59:23.892Z,3.27
2018-04-15T19:01:52.198Z,4.17
2018-04-15T19:04:20.484Z,3.53
2018-04-15T19:06:48.788Z,3.20
2018-04-15T19:09:17.084Z,3.33
2018-04-15T19:11:45.395Z,3.13
2018-04-15T19:14:13.650Z,3.47
2018-04-15T19:16:42.452Z,3.40
2018-04-15T19:19:10.717Z,3.23
2018-04-15T19:21:39.009Z,3.60
2018-04-15T19:24:07.263Z,3.03
2018-04-15T19:26:35.567Z,3.10
2018-04-15T19:31:38.362Z,4.00
2018-04-15T19:34:06.658Z,4.07
2018-04-15T19:36:35.057Z,4.50
2018-04-15T19:39:03.273Z,3.60
2018-04-15T19:41:31.584Z,4.17
2018-04-15T19:43:59.857Z,3.27
2018-04-15T19:46:28.153Z,3.60
2018-04-15T19:48:57.226Z,3.00
2018-04-15T19:51:25.734Z,4.07
2018-04-15T19:53:54.011Z,3.80
2018-04-15T19:56:22.275Z,3.50
2018-04-15T19:58:50.995Z,3.30
2018-04-15T20:01:19.252Z,3.73
2018-04-15T20:03:47.558Z,3.93
2018-04-15T20:06:15.840Z,3.60
2018-04-15T20:08:44.136Z,3.80
2018-04-15T20:11:12.430Z,3.97
2018-04-15T20:13:40.736Z,4.10
2018-04-15T20:16:09.023Z,3.77
2018-04-15T20:18:37.659Z,3.90
2018-04-15T20:21:05.925Z,5.10
2018-04-15T20:23:35.961Z,4.63
2018-04-15T20:26:04.236Z,4.67
2018-04-15T20:28:32.525Z,4.60
2018-04-15T20:31:00.792Z,4.37
2018-04-15T20:33:29.113Z,4.20
2018-04-15T20:35:57.380Z,3.80
2018-04-15T20:38:25.676Z,4.07
2018-04-15T20:40:53.931Z,4.43
2018-04-15T20:43:22.263Z,3.90
2018-04-15T20:45:50.563Z,4.77
2018-04-15T20:48:18.922Z,3.80
2018-04-15T20:50:47.220Z,3.90
2018-04-15T20:53:15.470Z,3.53
2018-04-15T20:55:43.784Z,4.33
2018-04-15T20:58:12.038Z,4.20
2018-04-15T21:00:40.374Z,4.40
2018-04-15T21:03:08.647Z,4.27
2018-04-15T21:05:36.930Z,4.20
2018-04-15T21:08:05.222Z,4.00
2018-04-15T21:10:33.504Z,4.00
2018-04-15T21:13:01.787Z,3.60
2018-04-15T21:15:30.069Z,3.83
2018-04-15T21:17:58.754Z,1.67
2018-04-15T21:20:27.086Z,2.10
2018-04-15T21:22:55.351Z,2.30
2018-04-15T21:25:23.608Z,2.40
2018-04-15T21:27:51.912Z,2.47
2018-04-15T21:30:20.182Z,2.70
2018-04-15T21:32:48.678Z,3.90
2018-04-15T21:35:17.353Z,3.60
2018-04-15T21:37:45.669Z,3.60
2018-04-15T21:40:13.946Z,3.65
2018-04-15T21:42:42.263Z,3.63
2018-04-15T21:45:10.783Z,4.00
2018-04-15T21:47:39.943Z,3.63
2018-04-15T21:50:08.246Z,4.27
2018-04-15T21:52:36.525Z,4.40
2018-04-15T21:55:05.338Z,4.00
2018-04-15T21:57:33.638Z,4.23
2018-04-15T22:00:01.903Z,4.23
2018-04-15T22:02:30.213Z,4.43
2018-04-15T22:04:58.469Z,4.60
2018-04-15T22:07:26.873Z,4.37
2018-04-15T22:09:55.146Z,4.37
2018-04-15T22:12:23.459Z,4.18
2018-04-15T22:14:51.732Z,4.70
2018-04-15T22:17:20.084Z,4.30
2018-04-15T22:19:48.368Z,4.27
2018-04-15T22:22:16.623Z,4.20
2018-04-15T22:24:45.087Z,4.20
2018-04-15T22:27:13.366Z,4.40
2018-04-15T22:29:41.667Z,4.00
2018-04-15T22:32:09.960Z,3.95
2018-04-15T22:37:13.042Z,3.93
2018-04-15T22:39:41.408Z,4.60
2018-04-15T22:42:09.741Z,4.72
2018-04-15T22:44:38.046Z,4.83
2018-04-15T22:47:06.326Z,4.93
2018-04-15T22:49:35.004Z,4.90
2018-04-15T22:52:03.299Z,5.03
2018-04-15T22:54:31.586Z,5.33
2018-04-15T22:57:05.465Z,4.60
2018-04-15T22:59:33.954Z,4.70
2018-04-15T23:02:02.255Z,4.25
2018-04-15T23:04:30.808Z,3.80
2018-04-15T23:06:59.084Z,3.83
2018-04-15T23:09:27.394Z,4.17
2018-04-15T23:11:55.659Z,4.57
2018-04-15T23:14:24.869Z,4.77
2018-04-15T23:16:53.149Z,4.93
2018-04-15T23:19:21.460Z,4.78
2018-04-15T23:21:49.774Z,4.20
2018-04-15T23:24:18.508Z,4.70
2018-04-15T23:26:46.770Z,4.90
2018-04-15T23:29:15.083Z,4.40
2018-04-15T23:31:43.387Z,4.30
2018-04-15T23:34:11.664Z,4.53
2018-04-15T23:36:39.968Z,4.70
2018-04-15T23:39:08.226Z,4.67
2018-04-15T23:41:36.526Z,4.27
2018-04-15T23:44:04.932Z,4.43
2018-04-15T23:46:33.213Z,4.50
2018-04-15T23:49:01.491Z,4.60
2018-04-15T23:51:29.775Z,4.40
2018-04-15T23:53:58.079Z,4.13
2018-04-15T23:56:26.369Z,4.50
2018-04-15T23:58:54.663Z,4.40
